createdAt,value
2023-04-18T00:01:50.657Z,9.43
2023-04-18T00:06:57.435Z,9.43
2023-04-18T00:12:05.020Z,9.43
2023-04-18T00:17:13.387Z,9.43
2023-04-18T00:22:22.533Z,9.42
2023-04-18T00:27:29.853Z,9.42
2023-04-18T00:32:36.691Z,9.42
2023-04-18T00:37:43.650Z,9.40
2023-04-18T00:42:50.658Z,9.39
2023-04-18T00:47:57.870Z,9.38
2023-04-18T00:53:05.037Z,9.35
2023-04-18T00:58:12.311Z,9.33
2023-04-18T01:03:19.958Z,9.31
2023-04-18T01:08:28.007Z,9.30
2023-04-18T01:13:37.736Z,9.28
2023-04-18T01:18:44.926Z,9.24
2023-04-18T01:23:52.428Z,9.22
2023-04-18T01:28:59.411Z,9.21
2023-04-18T01:34:07.377Z,9.20
2023-04-18T01:39:14.816Z,9.20
2023-04-18T01:44:21.702Z,9.20
2023-04-18T01:49:28.559Z,9.18
2023-04-18T01:54:35.369Z,9.17
2023-04-18T01:59:43.013Z,9.15
2023-04-18T02:04:49.886Z,9.14
2023-04-18T02:09:56.966Z,9.13
2023-04-18T02:15:04.155Z,9.10
2023-04-18T02:20:15.841Z,9.10
2023-04-18T02:25:23.862Z,9.08
2023-04-18T02:30:30.756Z,9.07
2023-04-18T02:35:38.499Z,9.07
2023-04-18T02:40:45.815Z,9.06
2023-04-18T02:45:52.832Z,9.05
2023-04-18T02:51:05.755Z,9.05
2023-04-18T02:56:16.914Z,9.05
2023-04-18T03:01:47.002Z,9.03
2023-04-18T03:06:59.204Z,9.03
2023-04-18T03:12:06.990Z,9.01
2023-04-18T03:17:15.277Z,9.00
2023-04-18T03:22:26.904Z,8.99
2023-04-18T03:27:36.158Z,8.97
2023-04-18T03:32:43.549Z,8.97
2023-04-18T03:37:50.536Z,8.97
2023-04-18T03:43:23.339Z,8.97
2023-04-18T03:48:35.812Z,8.98
2023-04-18T03:53:43.627Z,8.97
2023-04-18T03:58:50.637Z,8.97
2023-04-18T04:03:58.497Z,8.96
2023-04-18T04:09:06.067Z,8.96
2023-04-18T04:14:13.500Z,8.95
2023-04-18T04:19:24.082Z,8.93
2023-04-18T04:24:38.595Z,8.92
2023-04-18T04:29:46.337Z,8.92
2023-04-18T04:34:53.725Z,8.94
2023-04-18T04:40:02.801Z,8.94
2023-04-18T04:45:36.423Z,8.95
2023-04-18T04:50:43.665Z,8.95
2023-04-18T04:55:52.247Z,8.97
2023-04-18T05:00:59.067Z,9.00
2023-04-18T05:06:06.830Z,9.00
2023-04-18T05:11:13.837Z,9.00
2023-04-18T05:16:20.998Z,9.01
2023-04-18T05:21:28.836Z,9.02
2023-04-18T05:26:35.824Z,9.03
2023-04-18T05:31:42.725Z,9.05
2023-04-18T05:36:50.617Z,9.05
2023-04-18T05:41:58.417Z,9.07
2023-04-18T05:47:06.809Z,9.09
2023-04-18T05:52:13.729Z,9.12
2023-04-18T06:03:15.145Z,9.21
2023-04-18T06:08:22.199Z,9.25
2023-04-18T06:13:29.964Z,9.25
2023-04-18T06:18:37.022Z,9.26
2023-04-18T06:23:44.093Z,9.28
2023-04-18T06:28:51.011Z,9.29
2023-04-18T06:33:57.993Z,9.33
2023-04-18T06:39:05.035Z,9.39
2023-04-18T06:44:11.956Z,9.47
2023-04-18T06:49:19.701Z,9.58
2023-04-18T06:54:27.103Z,9.65
2023-04-18T06:59:35.661Z,9.72
2023-04-18T07:04:42.711Z,9.74
2023-04-18T07:09:50.328Z,9.74
2023-04-18T07:14:57.909Z,9.76
2023-04-18T07:20:05.083Z,9.80
2023-04-18T07:25:12.579Z,9.84
2023-04-18T07:30:20.276Z,9.86
2023-04-18T07:35:27.258Z,9.85
2023-04-18T07:40:34.242Z,9.95
2023-04-18T07:45:43.386Z,10.06
2023-04-18T07:50:50.616Z,10.22
2023-04-18T07:55:58.655Z,10.33
2023-04-18T08:01:06.307Z,10.40
2023-04-18T08:06:13.160Z,10.43
2023-04-18T08:11:20.227Z,10.53
2023-04-18T08:16:27.455Z,10.64
2023-04-18T08:21:34.849Z,10.77
2023-04-18T08:26:41.730Z,10.93
2023-04-18T08:31:49.061Z,11.06
2023-04-18T08:36:56.685Z,11.12
2023-04-18T08:42:04.892Z,11.17
2023-04-18T08:47:12.796Z,11.19
2023-04-18T08:52:19.802Z,11.22
2023-04-18T08:57:27.770Z,11.18
2023-04-18T09:02:43.079Z,11.18
2023-04-18T09:07:51.852Z,11.18
2023-04-18T09:13:36.425Z,11.20
2023-04-18T09:19:05.169Z,11.24
2023-04-18T09:24:24.555Z,11.29
2023-04-18T09:29:50.351Z,11.41
2023-04-18T09:35:01.399Z,11.55
2023-04-18T09:40:19.842Z,11.73
2023-04-18T09:45:27.828Z,11.84
2023-04-18T09:50:38.056Z,11.91
2023-04-18T09:55:45.271Z,12.05
2023-04-18T10:00:54.639Z,12.22
2023-04-18T10:06:01.783Z,12.42
2023-04-18T10:11:08.773Z,12.43
2023-04-18T10:16:17.014Z,12.52
2023-04-18T10:21:24.033Z,12.61
2023-04-18T10:26:50.436Z,12.78
2023-04-18T10:31:57.719Z,12.98
2023-04-18T10:37:08.276Z,12.97
2023-04-18T10:42:15.163Z,12.91
2023-04-18T10:47:25.158Z,13.00
2023-04-18T10:52:32.697Z,13.20
2023-04-18T10:57:45.633Z,13.28
2023-04-18T11:02:56.512Z,13.34
2023-04-18T11:08:02.114Z,13.25
2023-04-18T11:13:09.201Z,13.17
2023-04-18T11:18:16.445Z,13.00
2023-04-18T11:23:25.490Z,12.90
2023-04-18T11:28:33.043Z,12.73
2023-04-18T11:33:40.871Z,12.65
2023-04-18T11:38:48.080Z,12.66
2023-04-18T11:43:55.146Z,12.81
2023-04-18T11:49:02.230Z,13.08
2023-04-18T11:54:29.397Z,13.42
2023-04-18T11:59:37.301Z,13.87
2023-04-18T12:04:55.413Z,14.20
2023-04-18T12:10:03.104Z,14.10
2023-04-18T12:15:17.000Z,14.05
2023-04-18T12:20:40.000Z,14.20
2023-04-18T12:25:59.260Z,14.30
2023-04-18T12:31:07.586Z,14.48
2023-04-18T12:36:14.604Z,14.72
2023-04-18T12:41:21.520Z,15.17
2023-04-18T12:46:28.660Z,15.82
2023-04-18T12:51:35.635Z,15.96
2023-04-18T12:56:42.543Z,15.70
2023-04-18T13:01:49.533Z,15.73
2023-04-18T13:06:56.489Z,15.86
2023-04-18T13:12:04.305Z,15.88
2023-04-18T13:17:11.267Z,15.94
2023-04-18T13:22:18.102Z,15.78
2023-04-18T13:27:25.002Z,16.15
2023-04-18T13:32:32.469Z,16.13
2023-04-18T13:37:39.764Z,15.97
2023-04-18T13:42:59.286Z,15.76
2023-04-18T13:48:07.366Z,15.97
2023-04-18T13:53:16.305Z,16.13
2023-04-18T13:58:23.154Z,16.29
2023-04-18T14:03:30.510Z,16.10
2023-04-18T14:08:37.583Z,15.91
2023-04-18T14:13:44.709Z,15.82
2023-04-18T14:18:51.813Z,15.93
2023-04-18T14:23:58.910Z,16.20
2023-04-18T14:29:05.770Z,16.37
2023-04-18T14:34:12.889Z,16.42
2023-04-18T14:39:19.758Z,17.25
2023-04-18T14:44:26.704Z,18.58
2023-04-18T14:49:34.410Z,19.03
2023-04-18T14:54:41.403Z,18.91
2023-04-18T14:59:48.336Z,18.96
2023-04-18T15:04:55.468Z,18.86
2023-04-18T15:10:02.363Z,18.53
2023-04-18T15:15:11.619Z,18.02
2023-04-18T15:20:18.837Z,17.32
2023-04-18T15:25:26.149Z,16.64
2023-04-18T15:30:33.083Z,16.10
2023-04-18T15:35:40.104Z,15.81
2023-04-18T15:40:47.008Z,15.58
2023-04-18T15:45:53.896Z,15.37
2023-04-18T15:51:00.920Z,15.18
2023-04-18T15:56:08.186Z,15.03
2023-04-18T16:01:16.156Z,14.88
2023-04-18T16:06:23.627Z,14.70
2023-04-18T16:11:30.495Z,14.59
2023-04-18T16:16:37.292Z,14.51
2023-04-18T16:21:44.115Z,14.44
2023-04-18T16:26:52.234Z,14.33
2023-04-18T16:31:59.153Z,14.19
2023-04-18T16:37:06.041Z,14.07
2023-04-18T16:42:15.358Z,13.98
2023-04-18T16:47:22.727Z,13.92
2023-04-18T16:52:29.578Z,13.83
2023-04-18T16:57:36.408Z,13.73
2023-04-18T17:02:43.832Z,13.62
2023-04-18T17:07:51.731Z,13.52
2023-04-18T17:12:59.269Z,13.42
2023-04-18T17:18:06.508Z,13.35
2023-04-18T17:23:13.507Z,13.28
2023-04-18T17:28:21.357Z,13.18
2023-04-18T17:33:28.294Z,13.10
2023-04-18T17:38:35.147Z,13.02
2023-04-18T17:43:42.238Z,12.96
2023-04-18T17:48:49.717Z,12.89
2023-04-18T17:53:56.486Z,12.81
2023-04-18T17:59:03.343Z,12.75
2023-04-18T18:04:10.785Z,12.69
2023-04-18T18:09:17.704Z,12.64
2023-04-18T18:14:24.747Z,12.58
2023-04-18T18:19:31.806Z,12.54
2023-04-18T18:24:38.903Z,12.50
2023-04-18T18:29:45.906Z,12.47
2023-04-18T18:34:52.827Z,12.42
2023-04-18T18:40:00.004Z,12.38
2023-04-18T18:45:08.496Z,12.34
2023-04-18T18:50:15.683Z,12.32
2023-04-18T18:55:22.726Z,12.28
2023-04-18T19:00:29.749Z,12.25
2023-04-18T19:05:36.815Z,12.23
2023-04-18T19:10:44.588Z,12.20
2023-04-18T19:15:51.618Z,12.19
2023-04-18T19:20:58.603Z,12.16
2023-04-18T19:26:05.527Z,12.14
2023-04-18T19:31:12.671Z,12.11
2023-04-18T19:36:19.986Z,12.08
2023-04-18T19:41:27.034Z,12.07
2023-04-18T19:46:34.214Z,12.05
2023-04-18T19:51:41.484Z,12.03
2023-04-18T19:56:48.357Z,12.01
2023-04-18T20:01:55.573Z,12.00
2023-04-18T20:07:03.793Z,11.97
2023-04-18T20:12:10.833Z,11.95
2023-04-18T20:17:18.054Z,11.93
2023-04-18T20:22:26.770Z,11.90
2023-04-18T20:27:33.891Z,11.87
2023-04-18T20:32:40.817Z,11.84
2023-04-18T20:37:49.973Z,11.80
2023-04-18T20:42:58.865Z,11.76
2023-04-18T20:48:06.585Z,11.72
2023-04-18T20:53:13.519Z,11.68
2023-04-18T20:58:20.732Z,11.65
2023-04-18T21:03:27.670Z,11.60
2023-04-18T21:08:37.952Z,11.56
2023-04-18T21:13:45.031Z,11.50
2023-04-18T21:18:52.002Z,11.46
2023-04-18T21:23:58.968Z,11.41
2023-04-18T21:29:06.660Z,11.35
2023-04-18T21:34:13.985Z,11.32
2023-04-18T21:39:21.150Z,11.30
2023-04-18T21:44:28.088Z,11.26
2023-04-18T21:49:35.118Z,11.23
2023-04-18T21:54:42.199Z,11.18
2023-04-18T21:59:49.137Z,11.14
2023-04-18T22:04:56.296Z,11.11
2023-04-18T22:10:03.948Z,11.08
2023-04-18T22:15:12.364Z,11.04
2023-04-18T22:20:19.371Z,10.99
2023-04-18T22:25:26.327Z,10.93
2023-04-18T22:30:33.353Z,10.88
2023-04-18T22:35:40.440Z,10.83
2023-04-18T22:40:47.454Z,10.79
2023-04-18T22:45:54.393Z,10.74
2023-04-18T22:51:01.823Z,10.68
2023-04-18T22:56:09.472Z,10.65
2023-04-18T23:01:16.537Z,10.61
2023-04-18T23:06:23.424Z,10.58
2023-04-18T23:11:30.492Z,10.53
2023-04-18T23:16:37.396Z,10.48
2023-04-18T23:21:44.387Z,10.44
2023-04-18T23:26:51.380Z,10.39
2023-04-18T23:31:58.424Z,10.33
2023-04-18T23:37:05.408Z,10.28
2023-04-18T23:42:12.249Z,10.24
2023-04-18T23:47:19.213Z,10.18
2023-04-18T23:52:26.411Z,10.13
2023-04-18T23:57:33.389Z,10.06
